createdAt,value
2022-08-23T00:01:00.688Z,3.60
2022-08-23T00:03:48.185Z,3.40
2022-08-23T00:06:35.788Z,3.57
2022-08-23T00:09:25.201Z,3.30
2022-08-23T00:12:16.828Z,3.53
2022-08-23T00:15:04.160Z,3.57
2022-08-23T00:17:52.566Z,4.00
2022-08-23T00:20:39.557Z,3.30
2022-08-23T00:23:26.611Z,3.50
2022-08-23T00:26:17.957Z,3.43
2022-08-23T00:29:04.996Z,3.63
2022-08-23T00:31:51.846Z,2.93
2022-08-23T00:34:40.913Z,3.40
2022-08-23T00:37:29.514Z,3.47
2022-08-23T00:40:18.878Z,3.50
2022-08-23T00:43:31.466Z,3.20
2022-08-23T00:46:45.904Z,3.70
2022-08-23T00:49:33.906Z,3.23
2022-08-23T00:52:29.491Z,3.10
2022-08-23T00:55:18.138Z,3.03
2022-08-23T00:58:05.437Z,3.00
2022-08-23T01:00:54.943Z,3.03
2022-08-23T01:03:44.488Z,3.50
2022-08-23T01:06:39.469Z,3.37
2022-08-23T01:09:27.887Z,3.00
2022-08-23T01:12:29.581Z,3.00
2022-08-23T01:15:24.885Z,3.10
2022-08-23T01:18:16.672Z,3.30
2022-08-23T01:21:10.713Z,3.37
2022-08-23T01:24:01.808Z,3.33
2022-08-23T01:26:49.088Z,3.67
2022-08-23T01:29:36.306Z,3.20
2022-08-23T01:32:23.765Z,3.10
2022-08-23T01:35:11.449Z,3.37
2022-08-23T01:37:58.851Z,3.13
2022-08-23T01:40:47.507Z,3.33
2022-08-23T01:43:34.949Z,3.20
2022-08-23T01:46:25.074Z,3.40
2022-08-23T01:49:12.443Z,3.53
2022-08-23T01:51:59.911Z,3.20
2022-08-23T01:54:46.807Z,3.50
2022-08-23T01:57:36.167Z,3.60
2022-08-23T02:00:27.188Z,3.47
2022-08-23T02:03:15.958Z,3.83
2022-08-23T02:06:02.704Z,3.60
2022-08-23T02:09:03.384Z,2.93
2022-08-23T02:11:50.816Z,3.53
2022-08-23T02:14:42.150Z,3.07
2022-08-23T02:17:29.366Z,3.30
2022-08-23T02:20:16.192Z,3.30
2022-08-23T02:23:03.188Z,3.57
2022-08-23T02:25:51.824Z,3.17
2022-08-23T02:28:39.148Z,3.60
2022-08-23T02:31:27.547Z,3.57
2022-08-23T02:34:15.868Z,3.30
2022-08-23T02:37:04.174Z,2.93
2022-08-23T02:39:51.421Z,3.70
2022-08-23T02:42:38.318Z,2.87
2022-08-23T02:45:25.247Z,3.63
2022-08-23T02:48:13.550Z,3.33
2022-08-23T02:51:01.308Z,3.20
2022-08-23T02:53:48.649Z,2.90
2022-08-23T02:56:36.166Z,3.17
2022-08-23T02:59:22.878Z,3.67
2022-08-23T03:02:09.962Z,2.90
2022-08-23T03:04:58.715Z,3.40
2022-08-23T03:07:46.069Z,3.67
2022-08-23T03:10:33.395Z,3.73
2022-08-23T03:13:20.760Z,3.13
2022-08-23T03:16:08.313Z,2.83
2022-08-23T03:18:55.518Z,3.13
2022-08-23T03:21:44.267Z,3.00
2022-08-23T03:24:31.754Z,3.43
2022-08-23T03:27:18.918Z,3.27
2022-08-23T03:30:06.558Z,3.20
2022-08-23T03:33:00.444Z,3.50
2022-08-23T03:35:48.127Z,3.63
2022-08-23T03:38:37.937Z,3.20
2022-08-23T03:41:25.614Z,3.70
2022-08-23T03:44:12.574Z,3.40
2022-08-23T03:47:00.122Z,3.47
2022-08-23T03:49:47.269Z,3.37
2022-08-23T03:52:33.863Z,3.10
2022-08-23T03:55:22.433Z,3.03
2022-08-23T03:58:09.264Z,3.33
2022-08-23T04:00:57.403Z,3.57
2022-08-23T04:03:44.613Z,3.23
2022-08-23T04:06:33.198Z,3.03
2022-08-23T04:09:20.215Z,3.33
2022-08-23T04:12:12.031Z,3.53
2022-08-23T04:15:06.115Z,2.93
2022-08-23T04:17:53.019Z,3.27
2022-08-23T04:20:41.218Z,3.30
2022-08-23T04:23:28.600Z,3.30
2022-08-23T04:26:15.668Z,3.60
2022-08-23T04:29:05.071Z,3.60
2022-08-23T04:31:52.037Z,3.17
2022-08-23T04:34:40.055Z,2.90
2022-08-23T04:37:28.167Z,3.27
2022-08-23T04:40:32.582Z,3.40
2022-08-23T04:43:20.010Z,3.37
2022-08-23T04:46:10.291Z,3.30
2022-08-23T04:48:57.415Z,3.60
2022-08-23T04:51:44.503Z,3.20
2022-08-23T04:54:40.610Z,2.90
2022-08-23T04:57:27.939Z,3.30
2022-08-23T05:00:16.663Z,3.40
2022-08-23T05:03:05.353Z,3.13
2022-08-23T05:05:54.437Z,3.20
2022-08-23T05:08:41.452Z,3.57
2022-08-23T05:11:29.208Z,3.30
2022-08-23T05:14:16.168Z,3.60
2022-08-23T05:17:03.614Z,3.27
2022-08-23T05:19:52.560Z,3.17
2022-08-23T05:22:42.203Z,3.43
2022-08-23T05:25:49.539Z,3.87
2022-08-23T05:28:42.816Z,3.27
2022-08-23T05:31:31.127Z,3.67
2022-08-23T05:34:22.592Z,3.27
2022-08-23T05:37:11.315Z,3.47
2022-08-23T05:39:58.326Z,4.10
2022-08-23T05:42:45.353Z,3.80
2022-08-23T05:45:32.259Z,5.07
2022-08-23T05:48:19.653Z,4.10
2022-08-23T05:51:11.413Z,4.87
2022-08-23T05:54:02.009Z,4.50
2022-08-23T05:56:49.360Z,4.27
2022-08-23T05:59:36.602Z,5.40
2022-08-23T06:02:23.728Z,4.90
2022-08-23T06:05:10.923Z,5.33
2022-08-23T06:08:00.083Z,4.70
2022-08-23T06:10:48.560Z,4.70
2022-08-23T06:13:35.755Z,4.30
2022-08-23T06:16:27.985Z,4.47
2022-08-23T06:19:16.628Z,4.47
2022-08-23T06:22:03.409Z,4.10
2022-08-23T06:24:50.040Z,4.20
2022-08-23T06:27:38.670Z,3.90
2022-08-23T06:30:25.699Z,4.33
2022-08-23T06:33:14.239Z,4.13
2022-08-23T06:36:08.394Z,3.63
2022-08-23T06:38:56.334Z,4.13
2022-08-23T06:41:44.018Z,4.63
2022-08-23T06:44:33.915Z,3.30
2022-08-23T06:47:23.113Z,3.50
2022-08-23T06:50:11.644Z,3.35
2022-08-23T06:52:58.828Z,2.90
2022-08-23T06:55:46.779Z,3.08
2022-08-23T06:58:33.613Z,3.20
2022-08-23T07:01:44.656Z,2.97
2022-08-23T07:04:37.592Z,3.67
2022-08-23T07:07:24.350Z,3.50
2022-08-23T07:10:24.353Z,3.13
2022-08-23T07:13:11.641Z,3.35
2022-08-23T07:16:00.323Z,3.10
2022-08-23T07:18:49.819Z,3.17
2022-08-23T07:21:39.729Z,3.45
2022-08-23T07:24:32.920Z,2.90
2022-08-23T07:27:20.617Z,3.10
2022-08-23T07:30:08.749Z,2.80
2022-08-23T07:32:55.705Z,3.40
2022-08-23T07:35:49.892Z,2.90
2022-08-23T07:38:37.020Z,3.33
2022-08-23T07:41:25.504Z,3.03
2022-08-23T07:44:17.985Z,2.80
2022-08-23T07:47:05.498Z,2.58
2022-08-23T07:49:53.455Z,2.90
2022-08-23T07:52:41.882Z,3.22
2022-08-23T07:55:28.926Z,2.80
2022-08-23T07:58:15.832Z,3.00
2022-08-23T08:01:11.998Z,2.70
2022-08-23T08:04:04.325Z,2.88
2022-08-23T08:07:05.210Z,2.80
2022-08-23T08:10:00.873Z,2.33
2022-08-23T08:12:48.012Z,3.13
2022-08-23T08:15:34.980Z,2.97
2022-08-23T08:18:22.272Z,2.35
2022-08-23T08:21:09.090Z,2.92
2022-08-23T08:23:57.517Z,2.75
2022-08-23T08:26:46.922Z,3.15
2022-08-23T08:29:34.900Z,2.88
2022-08-23T08:32:22.000Z,2.63
2022-08-23T08:35:10.441Z,3.00
2022-08-23T08:37:58.178Z,2.90
2022-08-23T08:40:46.860Z,2.88
2022-08-23T08:43:49.279Z,2.55
2022-08-23T08:46:45.251Z,2.50
2022-08-23T08:49:42.642Z,2.20
2022-08-23T08:52:33.920Z,2.25
2022-08-23T08:55:25.144Z,3.03
2022-08-23T08:58:20.598Z,2.20
2022-08-23T09:01:08.932Z,2.30
2022-08-23T09:03:57.774Z,2.60
2022-08-23T09:06:55.021Z,2.20
2022-08-23T09:10:17.161Z,1.90
2022-08-23T09:13:36.946Z,2.10
2022-08-23T09:16:38.033Z,2.22
2022-08-23T09:19:26.398Z,2.25
2022-08-23T09:22:15.303Z,2.10
2022-08-23T09:25:02.361Z,2.05
2022-08-23T09:27:49.274Z,2.15
2022-08-23T09:30:53.855Z,2.42
2022-08-23T09:33:43.840Z,2.03
2022-08-23T09:36:35.463Z,2.50
2022-08-23T09:39:31.458Z,2.20
2022-08-23T09:42:30.751Z,2.28
2022-08-23T09:45:35.095Z,2.20
2022-08-23T09:48:36.328Z,2.13
2022-08-23T09:51:31.046Z,2.10
2022-08-23T09:54:23.040Z,2.33
2022-08-23T09:57:13.800Z,2.00
2022-08-23T10:00:18.520Z,2.47
2022-08-23T10:03:27.398Z,2.40
2022-08-23T10:06:30.981Z,2.08
2022-08-23T10:09:32.308Z,2.03
2022-08-23T10:12:19.299Z,2.55
2022-08-23T10:15:09.518Z,2.15
2022-08-23T10:18:04.116Z,1.90
2022-08-23T10:21:03.113Z,1.95
2022-08-23T10:24:05.683Z,2.15
2022-08-23T10:27:24.545Z,2.20
2022-08-23T10:30:14.290Z,2.20
2022-08-23T10:33:08.057Z,2.10
2022-08-23T10:36:02.873Z,1.90
2022-08-23T10:38:57.932Z,2.20
2022-08-23T10:41:55.492Z,1.95
2022-08-23T10:44:51.022Z,1.90
2022-08-23T10:47:53.728Z,1.92
2022-08-23T10:50:55.734Z,2.03
2022-08-23T10:53:47.338Z,2.03
2022-08-23T10:56:42.822Z,1.83
2022-08-23T10:59:33.684Z,2.00
2022-08-23T11:02:33.990Z,2.30
2022-08-23T11:05:27.209Z,2.08
2022-08-23T11:08:33.489Z,1.67
2022-08-23T11:11:43.295Z,1.73
2022-08-23T11:14:41.213Z,2.10
2022-08-23T11:17:35.902Z,2.00
2022-08-23T11:21:00.854Z,2.00
2022-08-23T11:23:55.611Z,1.98
2022-08-23T11:27:06.967Z,2.00
2022-08-23T11:29:55.542Z,1.90
2022-08-23T11:32:46.714Z,1.90
2022-08-23T11:35:43.288Z,1.85
2022-08-23T11:39:04.833Z,2.03
2022-08-23T11:42:05.572Z,1.77
2022-08-23T11:44:52.933Z,1.55
2022-08-23T11:47:44.828Z,2.05
2022-08-23T11:50:40.011Z,1.95
2022-08-23T11:53:43.067Z,2.20
2022-08-23T11:56:46.297Z,2.05
2022-08-23T12:00:01.585Z,1.60
2022-08-23T12:03:02.328Z,1.98
2022-08-23T12:06:32.312Z,1.85
2022-08-23T12:09:54.591Z,1.83
2022-08-23T12:12:47.004Z,1.70
2022-08-23T12:16:14.731Z,1.90
2022-08-23T12:19:10.422Z,1.92
2022-08-23T12:22:09.157Z,1.90
2022-08-23T12:25:00.648Z,1.85
2022-08-23T12:27:51.337Z,1.80
2022-08-23T12:30:48.712Z,1.67
2022-08-23T12:33:44.473Z,1.60
2022-08-23T12:36:43.870Z,1.98
2022-08-23T12:39:36.162Z,1.52
2022-08-23T12:42:28.281Z,1.58
2022-08-23T12:45:19.009Z,1.52
2022-08-23T12:48:10.431Z,1.60
2022-08-23T12:51:00.492Z,2.00
2022-08-23T12:53:48.945Z,1.67
2022-08-23T12:56:37.224Z,1.70
2022-08-23T12:59:35.159Z,1.67
2022-08-23T13:02:27.395Z,1.80
2022-08-23T13:05:18.772Z,1.73
2022-08-23T13:08:09.947Z,1.38
2022-08-23T13:10:58.963Z,1.80
2022-08-23T13:13:46.283Z,1.70
2022-08-23T13:16:42.891Z,1.80
2022-08-23T13:19:33.695Z,1.58
2022-08-23T13:22:26.461Z,1.85
2022-08-23T13:25:29.629Z,1.48
2022-08-23T13:28:27.333Z,1.65
2022-08-23T13:31:14.719Z,1.80
2022-08-23T13:34:01.842Z,1.70
2022-08-23T13:36:53.393Z,1.58
2022-08-23T13:39:47.314Z,1.65
2022-08-23T13:42:40.927Z,1.52
2022-08-23T13:45:31.148Z,1.60
2022-08-23T13:48:22.251Z,1.45
2022-08-23T13:51:20.553Z,1.60
2022-08-23T13:54:09.547Z,1.65
2022-08-23T13:57:01.358Z,1.83
2022-08-23T13:59:53.307Z,1.77
2022-08-23T14:02:41.788Z,1.92
2022-08-23T14:05:28.732Z,1.90
2022-08-23T14:08:20.382Z,1.90
2022-08-23T14:11:07.993Z,1.77
2022-08-23T14:13:54.831Z,1.77
2022-08-23T14:16:42.636Z,2.13
2022-08-23T14:22:38.955Z,1.88
2022-08-23T14:25:26.273Z,2.10
2022-08-23T14:28:13.333Z,1.80
2022-08-23T14:31:00.572Z,2.03
2022-08-23T14:33:48.088Z,1.70
2022-08-23T14:36:36.720Z,1.80
2022-08-23T14:39:23.926Z,1.70
2022-08-23T14:42:12.267Z,1.70
2022-08-23T14:44:59.381Z,2.17
2022-08-23T14:47:46.909Z,1.83
2022-08-23T14:50:34.379Z,1.60
2022-08-23T14:53:36.494Z,1.92
2022-08-23T14:56:25.385Z,1.58
2022-08-23T14:59:15.801Z,1.80
2022-08-23T15:02:03.130Z,1.80
2022-08-23T15:04:52.075Z,1.85
2022-08-23T15:07:39.335Z,1.40
2022-08-23T15:13:39.707Z,1.95
2022-08-23T15:16:42.325Z,1.65
2022-08-23T15:19:29.587Z,1.50
2022-08-23T15:22:18.919Z,1.80
2022-08-23T15:25:09.107Z,1.95
2022-08-23T15:27:57.870Z,1.80
2022-08-23T15:30:53.852Z,1.80
2022-08-23T15:33:40.984Z,1.65
2022-08-23T15:36:29.036Z,1.70
2022-08-23T15:39:16.489Z,1.80
2022-08-23T15:42:03.540Z,1.92
2022-08-23T15:44:52.431Z,1.63
2022-08-23T15:47:46.560Z,1.92
2022-08-23T15:50:36.375Z,1.80
2022-08-23T15:53:23.727Z,1.90
2022-08-23T15:56:14.957Z,2.28
2022-08-23T15:59:02.403Z,1.90
2022-08-23T16:01:51.084Z,1.80
2022-08-23T16:04:38.508Z,1.70
2022-08-23T16:07:25.723Z,1.80
2022-08-23T16:10:15.927Z,2.03
2022-08-23T16:13:03.561Z,1.85
2022-08-23T16:15:50.649Z,2.05
2022-08-23T16:18:39.274Z,1.75
2022-08-23T16:21:27.913Z,1.85
2022-08-23T16:24:15.264Z,1.98
2022-08-23T16:27:02.800Z,2.00
2022-08-23T16:29:50.284Z,1.90
2022-08-23T16:32:37.437Z,1.75
2022-08-23T16:35:26.122Z,1.80
2022-08-23T16:38:12.994Z,2.00
2022-08-23T16:41:00.522Z,1.92
2022-08-23T16:43:49.692Z,1.70
2022-08-23T16:46:37.191Z,1.75
2022-08-23T16:49:24.280Z,1.50
2022-08-23T16:52:12.773Z,1.55
2022-08-23T16:54:59.985Z,1.85
2022-08-23T16:57:47.500Z,1.80
2022-08-23T17:00:35.224Z,1.70
2022-08-23T17:03:22.336Z,1.70
2022-08-23T17:06:10.138Z,1.70
2022-08-23T17:08:58.808Z,1.52
2022-08-23T17:11:46.542Z,1.58
2022-08-23T17:14:33.635Z,2.38
2022-08-23T17:17:20.420Z,1.80
2022-08-23T17:20:08.646Z,1.67
2022-08-23T17:22:56.321Z,1.83
2022-08-23T17:25:48.074Z,1.85
2022-08-23T17:28:37.452Z,1.63
2022-08-23T17:31:24.912Z,2.00
2022-08-23T17:34:12.193Z,2.15
2022-08-23T17:37:16.852Z,1.80
2022-08-23T17:40:05.749Z,1.83
2022-08-23T17:42:55.872Z,1.70
2022-08-23T17:46:15.551Z,1.85
2022-08-23T17:49:11.073Z,1.90
2022-08-23T17:51:58.091Z,1.95
2022-08-23T17:54:45.169Z,2.10
2022-08-23T17:57:32.451Z,1.70
2022-08-23T18:00:21.247Z,2.20
2022-08-23T18:03:08.826Z,2.42
2022-08-23T18:05:55.975Z,2.25
2022-08-23T18:08:42.925Z,2.00
2022-08-23T18:11:32.105Z,1.95
2022-08-23T18:14:34.297Z,2.20
2022-08-23T18:17:29.809Z,2.03
2022-08-23T18:20:17.218Z,1.90
2022-08-23T18:23:04.862Z,2.28
2022-08-23T18:25:52.496Z,2.03
2022-08-23T18:28:38.233Z,2.50
2022-08-23T18:31:26.539Z,2.10
2022-08-23T18:34:17.813Z,2.05
2022-08-23T18:37:05.421Z,2.15
2022-08-23T18:39:52.640Z,2.58
2022-08-23T18:42:40.905Z,1.85
2022-08-23T18:45:28.170Z,2.35
2022-08-23T18:48:15.240Z,2.38
2022-08-23T18:51:05.058Z,2.08
2022-08-23T18:53:58.886Z,2.60
2022-08-23T18:56:46.507Z,2.63
2022-08-23T18:59:33.619Z,4.15
2022-08-23T19:02:24.391Z,2.95
2022-08-23T19:05:11.942Z,2.63
2022-08-23T19:08:00.684Z,2.85
2022-08-23T19:10:48.276Z,3.08
2022-08-23T19:13:35.456Z,2.88
2022-08-23T19:16:23.446Z,2.42
2022-08-23T19:19:11.878Z,2.55
2022-08-23T19:21:59.418Z,3.15
2022-08-23T19:24:48.100Z,3.20
2022-08-23T19:27:35.853Z,2.97
2022-08-23T19:30:22.893Z,2.80
2022-08-23T19:33:09.902Z,3.05
2022-08-23T19:35:58.187Z,2.70
2022-08-23T19:38:46.124Z,2.58
2022-08-23T19:41:34.602Z,2.50
2022-08-23T19:44:21.862Z,2.60
2022-08-23T19:47:13.364Z,2.38
2022-08-23T19:50:08.102Z,2.40
2022-08-23T19:52:55.466Z,2.83
2022-08-23T19:55:44.750Z,2.43
2022-08-23T19:58:33.510Z,2.70
2022-08-23T20:01:20.562Z,2.83
2022-08-23T20:04:07.996Z,2.70
2022-08-23T20:06:55.630Z,2.83
2022-08-23T20:09:42.734Z,3.00
2022-08-23T20:12:30.160Z,3.03
2022-08-23T20:15:18.731Z,2.50
2022-08-23T20:18:05.527Z,3.30
2022-08-23T20:20:54.040Z,2.97
2022-08-23T20:23:59.026Z,3.07
2022-08-23T20:26:48.437Z,2.73
2022-08-23T20:29:35.448Z,2.47
2022-08-23T20:32:24.268Z,2.77
2022-08-23T20:35:12.404Z,2.80
2022-08-23T20:38:01.952Z,2.90
2022-08-23T20:40:48.794Z,2.77
2022-08-23T20:43:40.502Z,2.90
2022-08-23T20:46:29.143Z,4.20
2022-08-23T20:49:17.881Z,4.93
2022-08-23T20:52:05.669Z,4.53
2022-08-23T20:54:53.609Z,3.77
2022-08-23T20:57:40.523Z,3.20
2022-08-23T21:00:27.980Z,2.90
2022-08-23T21:03:15.128Z,3.40
2022-08-23T21:06:09.135Z,2.97
2022-08-23T21:08:59.195Z,3.20
2022-08-23T21:11:46.396Z,3.20
2022-08-23T21:14:33.588Z,4.00
2022-08-23T21:17:21.060Z,2.67
2022-08-23T21:20:10.077Z,2.90
2022-08-23T21:22:58.584Z,3.30
2022-08-23T21:25:45.931Z,3.17
2022-08-23T21:28:33.656Z,3.47
2022-08-23T21:31:24.321Z,2.97
2022-08-23T21:34:11.885Z,3.23
2022-08-23T21:36:58.924Z,3.10
2022-08-23T21:39:47.971Z,2.90
2022-08-23T21:42:34.999Z,3.27
2022-08-23T21:45:22.085Z,3.30
2022-08-23T21:48:09.192Z,3.00
2022-08-23T21:50:55.888Z,3.40
2022-08-23T21:53:42.924Z,3.03
2022-08-23T21:56:31.674Z,3.33
2022-08-23T21:59:20.014Z,3.30
2022-08-23T22:02:07.307Z,3.23
2022-08-23T22:04:54.388Z,3.50
2022-08-23T22:07:42.350Z,3.73
2022-08-23T22:10:29.728Z,3.30
2022-08-23T22:13:17.949Z,3.30
2022-08-23T22:16:05.418Z,3.77
2022-08-23T22:18:52.670Z,3.53
2022-08-23T22:21:40.208Z,3.57
2022-08-23T22:24:27.020Z,3.47
2022-08-23T22:27:14.382Z,3.47
2022-08-23T22:30:02.934Z,3.57
2022-08-23T22:32:50.120Z,3.20
2022-08-23T22:35:39.625Z,3.40
2022-08-23T22:38:27.382Z,3.73
2022-08-23T22:41:17.643Z,3.50
2022-08-23T22:44:05.207Z,4.30
2022-08-23T22:46:53.908Z,3.83
2022-08-23T22:49:41.153Z,3.27
2022-08-23T22:52:28.103Z,3.63
2022-08-23T22:55:15.613Z,3.47
2022-08-23T22:58:03.213Z,4.03
2022-08-23T23:00:50.440Z,3.50
2022-08-23T23:03:38.733Z,3.80
2022-08-23T23:06:28.894Z,3.80
2022-08-23T23:09:16.018Z,4.13
2022-08-23T23:12:02.956Z,3.43
2022-08-23T23:14:49.970Z,3.60
2022-08-23T23:17:37.209Z,3.70
2022-08-23T23:20:40.907Z,3.53
2022-08-23T23:23:30.035Z,3.37
2022-08-23T23:26:17.094Z,3.73
2022-08-23T23:29:04.621Z,4.03
2022-08-23T23:31:52.185Z,3.53
2022-08-23T23:34:39.210Z,4.00
2022-08-23T23:37:27.938Z,3.60
2022-08-23T23:40:17.625Z,3.47
2022-08-23T23:43:05.241Z,3.80
2022-08-23T23:45:52.395Z,3.87
2022-08-23T23:48:40.418Z,3.47
2022-08-23T23:51:30.494Z,3.40
2022-08-23T23:54:19.083Z,4.30
2022-08-23T23:57:08.022Z,3.27
2022-08-23T23:59:55.538Z,3.70
